sensor_id;sensor_type;location;lat;lon;timestamp;P1;durP1;ratioP1;P2;durP2;ratioP2
24799;SDS011;12897;50.812;4.430;2023-05-16T00:00:51;29.52;;;4.20;;
24799;SDS011;12897;50.812;4.430;2023-05-16T00:06:08;25.43;;;3.58;;
24799;SDS011;12897;50.812;4.430;2023-05-16T00:08:36;23.83;;;3.45;;
24799;SDS011;12897;50.812;4.430;2023-05-16T00:11:03;22.65;;;3.75;;
24799;SDS011;12897;50.812;4.430;2023-05-16T00:13:31;24.92;;;3.45;;
24799;SDS011;12897;50.812;4.430;2023-05-16T00:15:59;28.75;;;4.08;;
24799;SDS011;12897;50.812;4.430;2023-05-16T00:18:31;27.73;;;3.37;;
24799;SDS011;12897;50.812;4.430;2023-05-16T00:21:00;28.85;;;3.77;;
24799;SDS011;12897;50.812;4.430;2023-05-16T00:23:28;22.42;;;3.85;;
24799;SDS011;12897;50.812;4.430;2023-05-16T00:25:59;30.37;;;3.80;;
24799;SDS011;12897;50.812;4.430;2023-05-16T00:28:34;33.85;;;3.83;;
24799;SDS011;12897;50.812;4.430;2023-05-16T00:31:07;19.07;;;2.67;;
24799;SDS011;12897;50.812;4.430;2023-05-16T00:33:35;24.00;;;3.15;;
24799;SDS011;12897;50.812;4.430;2023-05-16T00:36:02;26.87;;;3.15;;
24799;SDS011;12897;50.812;4.430;2023-05-16T00:38:30;17.90;;;3.40;;
24799;SDS011;12897;50.812;4.430;2023-05-16T00:40:58;23.15;;;3.70;;
24799;SDS011;12897;50.812;4.430;2023-05-16T00:43:26;23.12;;;3.33;;
24799;SDS011;12897;50.812;4.430;2023-05-16T00:45:55;18.82;;;3.15;;
24799;SDS011;12897;50.812;4.430;2023-05-16T00:48:24;30.97;;;3.50;;
24799;SDS011;12897;50.812;4.430;2023-05-16T00:50:52;23.45;;;3.50;;
24799;SDS011;12897;50.812;4.430;2023-05-16T00:53:20;21.45;;;3.30;;
24799;SDS011;12897;50.812;4.430;2023-05-16T00:55:49;20.75;;;3.35;;
24799;SDS011;12897;50.812;4.430;2023-05-16T00:58:18;24.67;;;3.75;;
24799;SDS011;12897;50.812;4.430;2023-05-16T01:00:48;26.80;;;3.05;;
24799;SDS011;12897;50.812;4.430;2023-05-16T01:03:16;26.00;;;3.72;;
24799;SDS011;12897;50.812;4.430;2023-05-16T01:05:44;28.17;;;4.05;;
24799;SDS011;12897;50.812;4.430;2023-05-16T01:08:12;34.30;;;3.72;;
24799;SDS011;12897;50.812;4.430;2023-05-16T01:10:43;26.73;;;3.22;;
24799;SDS011;12897;50.812;4.430;2023-05-16T01:16:21;25.20;;;3.35;;
24799;SDS011;12897;50.812;4.430;2023-05-16T01:18:56;26.27;;;4.30;;
24799;SDS011;12897;50.812;4.430;2023-05-16T01:24:33;27.32;;;3.67;;
24799;SDS011;12897;50.812;4.430;2023-05-16T01:27:16;27.62;;;3.60;;
24799;SDS011;12897;50.812;4.430;2023-05-16T01:29:45;17.80;;;2.92;;
24799;SDS011;12897;50.812;4.430;2023-05-16T01:32:13;20.57;;;3.12;;
24799;SDS011;12897;50.812;4.430;2023-05-16T01:34:42;24.50;;;3.37;;
24799;SDS011;12897;50.812;4.430;2023-05-16T01:37:20;24.82;;;3.17;;
24799;SDS011;12897;50.812;4.430;2023-05-16T01:42:38;27.22;;;3.62;;
24799;SDS011;12897;50.812;4.430;2023-05-16T01:47:48;29.35;;;4.00;;
24799;SDS011;12897;50.812;4.430;2023-05-16T01:50:17;21.68;;;3.33;;
24799;SDS011;12897;50.812;4.430;2023-05-16T01:52:56;27.55;;;2.98;;
24799;SDS011;12897;50.812;4.430;2023-05-16T01:55:34;28.35;;;3.60;;
24799;SDS011;12897;50.812;4.430;2023-05-16T01:58:19;25.97;;;3.25;;
24799;SDS011;12897;50.812;4.430;2023-05-16T02:00:51;27.62;;;3.52;;
24799;SDS011;12897;50.812;4.430;2023-05-16T02:03:20;20.72;;;3.80;;
24799;SDS011;12897;50.812;4.430;2023-05-16T02:05:47;23.65;;;3.25;;
24799;SDS011;12897;50.812;4.430;2023-05-16T02:08:15;28.52;;;4.08;;
24799;SDS011;12897;50.812;4.430;2023-05-16T02:10:42;23.50;;;3.47;;
24799;SDS011;12897;50.812;4.430;2023-05-16T02:13:10;31.25;;;3.52;;
24799;SDS011;12897;50.812;4.430;2023-05-16T02:15:39;33.50;;;3.90;;
24799;SDS011;12897;50.812;4.430;2023-05-16T02:18:07;22.65;;;3.50;;
24799;SDS011;12897;50.812;4.430;2023-05-16T02:20:40;25.70;;;4.12;;
24799;SDS011;12897;50.812;4.430;2023-05-16T02:23:14;31.68;;;4.17;;
24799;SDS011;12897;50.812;4.430;2023-05-16T02:28:25;25.65;;;3.92;;
24799;SDS011;12897;50.812;4.430;2023-05-16T02:31:00;26.75;;;2.98;;
24799;SDS011;12897;50.812;4.430;2023-05-16T02:33:39;27.22;;;4.50;;
24799;SDS011;12897;50.812;4.430;2023-05-16T02:36:14;26.37;;;3.25;;
24799;SDS011;12897;50.812;4.430;2023-05-16T02:38:48;22.98;;;3.67;;
24799;SDS011;12897;50.812;4.430;2023-05-16T02:41:27;21.93;;;2.72;;
24799;SDS011;12897;50.812;4.430;2023-05-16T02:44:04;31.90;;;3.30;;
24799;SDS011;12897;50.812;4.430;2023-05-16T02:46:32;28.65;;;3.25;;
24799;SDS011;12897;50.812;4.430;2023-05-16T02:49:01;30.70;;;4.20;;
24799;SDS011;12897;50.812;4.430;2023-05-16T02:51:28;33.58;;;3.50;;
24799;SDS011;12897;50.812;4.430;2023-05-16T02:53:56;30.72;;;3.77;;
24799;SDS011;12897;50.812;4.430;2023-05-16T02:56:26;17.90;;;3.23;;
24799;SDS011;12897;50.812;4.430;2023-05-16T02:58:54;27.25;;;3.60;;
24799;SDS011;12897;50.812;4.430;2023-05-16T03:01:22;21.17;;;3.17;;
24799;SDS011;12897;50.812;4.430;2023-05-16T03:03:49;22.42;;;3.45;;
24799;SDS011;12897;50.812;4.430;2023-05-16T03:06:17;38.38;;;3.75;;
24799;SDS011;12897;50.812;4.430;2023-05-16T03:08:46;27.37;;;3.60;;
24799;SDS011;12897;50.812;4.430;2023-05-16T03:11:14;23.10;;;3.80;;
24799;SDS011;12897;50.812;4.430;2023-05-16T03:13:44;31.35;;;3.70;;
24799;SDS011;12897;50.812;4.430;2023-05-16T03:16:11;24.47;;;3.95;;
24799;SDS011;12897;50.812;4.430;2023-05-16T03:18:40;29.35;;;3.30;;
24799;SDS011;12897;50.812;4.430;2023-05-16T03:21:09;20.10;;;2.98;;
24799;SDS011;12897;50.812;4.430;2023-05-16T03:23:37;28.17;;;3.83;;
24799;SDS011;12897;50.812;4.430;2023-05-16T03:26:04;27.20;;;3.65;;
24799;SDS011;12897;50.812;4.430;2023-05-16T03:28:32;28.92;;;4.47;;
24799;SDS011;12897;50.812;4.430;2023-05-16T03:31:00;21.40;;;3.67;;
24799;SDS011;12897;50.812;4.430;2023-05-16T03:36:14;26.33;;;3.80;;
24799;SDS011;12897;50.812;4.430;2023-05-16T03:38:48;29.57;;;4.05;;
24799;SDS011;12897;50.812;4.430;2023-05-16T03:41:22;24.12;;;3.65;;
24799;SDS011;12897;50.812;4.430;2023-05-16T03:46:28;28.38;;;3.77;;
24799;SDS011;12897;50.812;4.430;2023-05-16T03:48:57;26.27;;;4.50;;
24799;SDS011;12897;50.812;4.430;2023-05-16T03:53:53;27.62;;;3.40;;
24799;SDS011;12897;50.812;4.430;2023-05-16T03:56:21;27.67;;;3.65;;
24799;SDS011;12897;50.812;4.430;2023-05-16T03:58:48;20.57;;;3.20;;
24799;SDS011;12897;50.812;4.430;2023-05-16T04:01:18;21.35;;;3.80;;
24799;SDS011;12897;50.812;4.430;2023-05-16T04:03:46;27.82;;;3.37;;
24799;SDS011;12897;50.812;4.430;2023-05-16T04:06:15;23.07;;;3.70;;
24799;SDS011;12897;50.812;4.430;2023-05-16T04:08:43;24.12;;;3.47;;
24799;SDS011;12897;50.812;4.430;2023-05-16T04:11:11;20.80;;;3.17;;
24799;SDS011;12897;50.812;4.430;2023-05-16T04:13:38;36.93;;;3.50;;
24799;SDS011;12897;50.812;4.430;2023-05-16T04:16:06;24.12;;;3.25;;
24799;SDS011;12897;50.812;4.430;2023-05-16T04:18:36;26.70;;;4.05;;
24799;SDS011;12897;50.812;4.430;2023-05-16T04:21:05;17.07;;;3.05;;
24799;SDS011;12897;50.812;4.430;2023-05-16T04:23:36;30.25;;;3.77;;
24799;SDS011;12897;50.812;4.430;2023-05-16T04:26:03;23.98;;;3.95;;
24799;SDS011;12897;50.812;4.430;2023-05-16T04:28:31;23.18;;;3.85;;
24799;SDS011;12897;50.812;4.430;2023-05-16T04:30:59;22.25;;;3.10;;
24799;SDS011;12897;50.812;4.430;2023-05-16T04:33:33;25.43;;;3.20;;
24799;SDS011;12897;50.812;4.430;2023-05-16T04:38:31;30.82;;;3.85;;
24799;SDS011;12897;50.812;4.430;2023-05-16T04:40:59;26.52;;;4.05;;
24799;SDS011;12897;50.812;4.430;2023-05-16T04:43:28;20.82;;;3.55;;
24799;SDS011;12897;50.812;4.430;2023-05-16T04:45:55;20.17;;;3.42;;
24799;SDS011;12897;50.812;4.430;2023-05-16T04:48:26;25.37;;;3.83;;
24799;SDS011;12897;50.812;4.430;2023-05-16T04:50:54;30.35;;;4.15;;
24799;SDS011;12897;50.812;4.430;2023-05-16T04:53:22;26.50;;;3.55;;
24799;SDS011;12897;50.812;4.430;2023-05-16T04:55:49;28.67;;;3.50;;
24799;SDS011;12897;50.812;4.430;2023-05-16T04:58:17;28.73;;;4.55;;
24799;SDS011;12897;50.812;4.430;2023-05-16T05:00:50;24.55;;;3.52;;
24799;SDS011;12897;50.812;4.430;2023-05-16T05:03:17;21.40;;;3.87;;
24799;SDS011;12897;50.812;4.430;2023-05-16T05:05:45;32.13;;;5.03;;
24799;SDS011;12897;50.812;4.430;2023-05-16T05:08:18;23.15;;;3.58;;
24799;SDS011;12897;50.812;4.430;2023-05-16T05:10:42;23.95;;;4.15;;
24799;SDS011;12897;50.812;4.430;2023-05-16T05:13:10;26.77;;;4.28;;
24799;SDS011;12897;50.812;4.430;2023-05-16T05:15:38;17.85;;;3.15;;
24799;SDS011;12897;50.812;4.430;2023-05-16T05:18:05;21.50;;;3.70;;
24799;SDS011;12897;50.812;4.430;2023-05-16T05:20:33;22.20;;;4.00;;
24799;SDS011;12897;50.812;4.430;2023-05-16T05:23:01;17.62;;;3.27;;
24799;SDS011;12897;50.812;4.430;2023-05-16T05:28:07;24.30;;;3.90;;
24799;SDS011;12897;50.812;4.430;2023-05-16T05:30:34;20.40;;;3.35;;
24799;SDS011;12897;50.812;4.430;2023-05-16T05:33:02;25.27;;;3.33;;
24799;SDS011;12897;50.812;4.430;2023-05-16T05:35:30;21.82;;;3.60;;
24799;SDS011;12897;50.812;4.430;2023-05-16T05:37:59;23.75;;;2.75;;
24799;SDS011;12897;50.812;4.430;2023-05-16T05:40:29;16.37;;;3.15;;
24799;SDS011;12897;50.812;4.430;2023-05-16T05:42:57;16.67;;;3.17;;
24799;SDS011;12897;50.812;4.430;2023-05-16T05:45:25;24.70;;;3.12;;
24799;SDS011;12897;50.812;4.430;2023-05-16T05:47:52;17.12;;;3.22;;
24799;SDS011;12897;50.812;4.430;2023-05-16T05:50:20;19.37;;;3.33;;
24799;SDS011;12897;50.812;4.430;2023-05-16T05:52:50;17.65;;;3.35;;
24799;SDS011;12897;50.812;4.430;2023-05-16T05:55:17;27.32;;;3.33;;
24799;SDS011;12897;50.812;4.430;2023-05-16T05:57:44;24.45;;;3.72;;
24799;SDS011;12897;50.812;4.430;2023-05-16T06:00:13;21.85;;;3.42;;
24799;SDS011;12897;50.812;4.430;2023-05-16T06:02:41;22.80;;;3.42;;
24799;SDS011;12897;50.812;4.430;2023-05-16T06:05:10;15.95;;;3.10;;
24799;SDS011;12897;50.812;4.430;2023-05-16T06:07:38;21.05;;;2.85;;
24799;SDS011;12897;50.812;4.430;2023-05-16T06:10:06;18.42;;;3.22;;
24799;SDS011;12897;50.812;4.430;2023-05-16T06:12:35;26.20;;;3.75;;
24799;SDS011;12897;50.812;4.430;2023-05-16T06:15:09;16.55;;;2.77;;
24799;SDS011;12897;50.812;4.430;2023-05-16T06:17:37;17.30;;;2.42;;
24799;SDS011;12897;50.812;4.430;2023-05-16T06:20:05;14.38;;;2.47;;
24799;SDS011;12897;50.812;4.430;2023-05-16T06:22:34;19.62;;;3.37;;
24799;SDS011;12897;50.812;4.430;2023-05-16T06:27:30;19.92;;;2.92;;
24799;SDS011;12897;50.812;4.430;2023-05-16T06:29:58;20.20;;;2.92;;
24799;SDS011;12897;50.812;4.430;2023-05-16T06:32:27;20.08;;;2.80;;
24799;SDS011;12897;50.812;4.430;2023-05-16T06:34:55;19.90;;;3.10;;
24799;SDS011;12897;50.812;4.430;2023-05-16T06:37:23;17.37;;;2.77;;
24799;SDS011;12897;50.812;4.430;2023-05-16T06:39:51;18.92;;;3.27;;
24799;SDS011;12897;50.812;4.430;2023-05-16T06:42:19;21.73;;;3.22;;
24799;SDS011;12897;50.812;4.430;2023-05-16T06:44:47;19.95;;;2.62;;
24799;SDS011;12897;50.812;4.430;2023-05-16T06:47:14;17.77;;;2.80;;
24799;SDS011;12897;50.812;4.430;2023-05-16T06:49:42;20.57;;;2.87;;
24799;SDS011;12897;50.812;4.430;2023-05-16T06:52:09;18.65;;;3.15;;
24799;SDS011;12897;50.812;4.430;2023-05-16T06:54:38;26.37;;;3.22;;
24799;SDS011;12897;50.812;4.430;2023-05-16T06:57:05;13.05;;;2.50;;
24799;SDS011;12897;50.812;4.430;2023-05-16T06:59:33;14.73;;;2.77;;
24799;SDS011;12897;50.812;4.430;2023-05-16T07:02:01;16.85;;;2.40;;
24799;SDS011;12897;50.812;4.430;2023-05-16T07:04:29;20.57;;;2.92;;
24799;SDS011;12897;50.812;4.430;2023-05-16T07:06:56;13.53;;;2.52;;
24799;SDS011;12897;50.812;4.430;2023-05-16T07:09:25;19.32;;;2.60;;
24799;SDS011;12897;50.812;4.430;2023-05-16T07:11:53;16.48;;;3.35;;
24799;SDS011;12897;50.812;4.430;2023-05-16T07:14:20;13.55;;;2.70;;
24799;SDS011;12897;50.812;4.430;2023-05-16T07:16:48;17.55;;;2.67;;
24799;SDS011;12897;50.812;4.430;2023-05-16T07:19:16;17.85;;;2.92;;
24799;SDS011;12897;50.812;4.430;2023-05-16T07:21:43;16.50;;;2.95;;
24799;SDS011;12897;50.812;4.430;2023-05-16T07:26:58;17.60;;;2.83;;
24799;SDS011;12897;50.812;4.430;2023-05-16T07:29:25;19.98;;;3.30;;
24799;SDS011;12897;50.812;4.430;2023-05-16T07:31:55;12.50;;;2.53;;
24799;SDS011;12897;50.812;4.430;2023-05-16T07:34:22;17.80;;;2.67;;
24799;SDS011;12897;50.812;4.430;2023-05-16T07:36:50;21.10;;;2.75;;
24799;SDS011;12897;50.812;4.430;2023-05-16T07:39:18;13.05;;;2.60;;
24799;SDS011;12897;50.812;4.430;2023-05-16T07:41:46;11.12;;;2.22;;
24799;SDS011;12897;50.812;4.430;2023-05-16T07:44:14;16.40;;;3.02;;
24799;SDS011;12897;50.812;4.430;2023-05-16T07:46:42;16.62;;;2.50;;
24799;SDS011;12897;50.812;4.430;2023-05-16T07:49:10;17.50;;;2.15;;
24799;SDS011;12897;50.812;4.430;2023-05-16T07:51:43;25.40;;;3.20;;
24799;SDS011;12897;50.812;4.430;2023-05-16T07:54:11;16.65;;;2.42;;
24799;SDS011;12897;50.812;4.430;2023-05-16T07:56:44;17.98;;;2.35;;
24799;SDS011;12897;50.812;4.430;2023-05-16T07:59:12;14.83;;;2.62;;
24799;SDS011;12897;50.812;4.430;2023-05-16T08:01:39;15.08;;;2.58;;
24799;SDS011;12897;50.812;4.430;2023-05-16T08:04:07;13.88;;;2.40;;
24799;SDS011;12897;50.812;4.430;2023-05-16T08:06:34;17.15;;;2.25;;
24799;SDS011;12897;50.812;4.430;2023-05-16T08:09:06;20.45;;;2.33;;
24799;SDS011;12897;50.812;4.430;2023-05-16T08:11:34;8.80;;;2.05;;
24799;SDS011;12897;50.812;4.430;2023-05-16T08:14:02;14.40;;;2.77;;
24799;SDS011;12897;50.812;4.430;2023-05-16T08:16:29;13.25;;;2.08;;
24799;SDS011;12897;50.812;4.430;2023-05-16T08:18:57;10.93;;;2.10;;
24799;SDS011;12897;50.812;4.430;2023-05-16T08:21:25;15.65;;;2.42;;
24799;SDS011;12897;50.812;4.430;2023-05-16T08:23:52;12.10;;;2.17;;
24799;SDS011;12897;50.812;4.430;2023-05-16T08:26:20;13.20;;;2.37;;
24799;SDS011;12897;50.812;4.430;2023-05-16T08:28:48;24.98;;;2.62;;
24799;SDS011;12897;50.812;4.430;2023-05-16T08:31:15;12.20;;;1.82;;
24799;SDS011;12897;50.812;4.430;2023-05-16T08:33:43;16.48;;;2.37;;
24799;SDS011;12897;50.812;4.430;2023-05-16T08:36:10;13.60;;;2.22;;
24799;SDS011;12897;50.812;4.430;2023-05-16T08:38:40;9.97;;;2.17;;
24799;SDS011;12897;50.812;4.430;2023-05-16T08:41:07;18.42;;;2.33;;
24799;SDS011;12897;50.812;4.430;2023-05-16T08:43:35;15.32;;;2.17;;
24799;SDS011;12897;50.812;4.430;2023-05-16T08:46:02;12.10;;;2.08;;
24799;SDS011;12897;50.812;4.430;2023-05-16T08:48:31;14.60;;;2.10;;
24799;SDS011;12897;50.812;4.430;2023-05-16T08:51:00;15.85;;;1.77;;
24799;SDS011;12897;50.812;4.430;2023-05-16T08:53:33;9.90;;;2.15;;
24799;SDS011;12897;50.812;4.430;2023-05-16T08:56:01;11.73;;;2.12;;
24799;SDS011;12897;50.812;4.430;2023-05-16T08:58:33;14.00;;;1.70;;
24799;SDS011;12897;50.812;4.430;2023-05-16T09:01:03;15.63;;;2.42;;
24799;SDS011;12897;50.812;4.430;2023-05-16T09:03:34;9.53;;;1.75;;
24799;SDS011;12897;50.812;4.430;2023-05-16T09:06:04;11.28;;;2.30;;
24799;SDS011;12897;50.812;4.430;2023-05-16T09:08:32;7.55;;;1.95;;
24799;SDS011;12897;50.812;4.430;2023-05-16T09:11:01;7.25;;;1.60;;
24799;SDS011;12897;50.812;4.430;2023-05-16T09:13:29;11.85;;;1.92;;
24799;SDS011;12897;50.812;4.430;2023-05-16T09:16:18;12.93;;;2.62;;
24799;SDS011;12897;50.812;4.430;2023-05-16T09:18:33;12.82;;;2.00;;
24799;SDS011;12897;50.812;4.430;2023-05-16T09:21:02;12.80;;;2.12;;
24799;SDS011;12897;50.812;4.430;2023-05-16T09:23:33;8.70;;;2.15;;
24799;SDS011;12897;50.812;4.430;2023-05-16T09:26:03;15.83;;;1.77;;
24799;SDS011;12897;50.812;4.430;2023-05-16T09:28:33;10.98;;;2.00;;
24799;SDS011;12897;50.812;4.430;2023-05-16T09:31:02;11.35;;;1.72;;
24799;SDS011;12897;50.812;4.430;2023-05-16T09:33:30;7.97;;;1.72;;
24799;SDS011;12897;50.812;4.430;2023-05-16T09:35:59;11.20;;;1.98;;
24799;SDS011;12897;50.812;4.430;2023-05-16T09:38:28;17.70;;;2.42;;
24799;SDS011;12897;50.812;4.430;2023-05-16T09:40:58;11.10;;;1.90;;
24799;SDS011;12897;50.812;4.430;2023-05-16T09:46:01;8.35;;;1.82;;
24799;SDS011;12897;50.812;4.430;2023-05-16T09:48:29;7.58;;;1.47;;
24799;SDS011;12897;50.812;4.430;2023-05-16T09:50:58;10.73;;;1.60;;
24799;SDS011;12897;50.812;4.430;2023-05-16T09:53:31;17.82;;;2.02;;
24799;SDS011;12897;50.812;4.430;2023-05-16T09:56:00;13.88;;;1.82;;
24799;SDS011;12897;50.812;4.430;2023-05-16T09:58:33;10.58;;;1.82;;
24799;SDS011;12897;50.812;4.430;2023-05-16T10:01:04;13.10;;;1.80;;
24799;SDS011;12897;50.812;4.430;2023-05-16T10:03:39;7.95;;;1.45;;
24799;SDS011;12897;50.812;4.430;2023-05-16T10:06:08;6.80;;;1.87;;
24799;SDS011;12897;50.812;4.430;2023-05-16T10:08:36;13.20;;;1.90;;
24799;SDS011;12897;50.812;4.430;2023-05-16T10:11:06;8.98;;;1.87;;
24799;SDS011;12897;50.812;4.430;2023-05-16T10:13:34;13.00;;;1.80;;
24799;SDS011;12897;50.812;4.430;2023-05-16T10:16:07;12.82;;;1.87;;
24799;SDS011;12897;50.812;4.430;2023-05-16T10:18:39;11.45;;;1.90;;
24799;SDS011;12897;50.812;4.430;2023-05-16T10:21:09;8.98;;;2.00;;
24799;SDS011;12897;50.812;4.430;2023-05-16T10:23:43;9.45;;;1.60;;
24799;SDS011;12897;50.812;4.430;2023-05-16T10:26:15;8.28;;;1.85;;
24799;SDS011;12897;50.812;4.430;2023-05-16T10:28:44;5.67;;;1.65;;
24799;SDS011;12897;50.812;4.430;2023-05-16T10:31:12;6.92;;;1.82;;
24799;SDS011;12897;50.812;4.430;2023-05-16T10:33:41;9.08;;;2.30;;
24799;SDS011;12897;50.812;4.430;2023-05-16T10:36:09;9.00;;;1.87;;
24799;SDS011;12897;50.812;4.430;2023-05-16T10:38:37;10.00;;;1.80;;
24799;SDS011;12897;50.812;4.430;2023-05-16T10:41:06;6.92;;;1.50;;
24799;SDS011;12897;50.812;4.430;2023-05-16T10:43:35;14.07;;;2.37;;
24799;SDS011;12897;50.812;4.430;2023-05-16T10:46:03;10.60;;;1.60;;
24799;SDS011;12897;50.812;4.430;2023-05-16T10:48:35;8.60;;;1.40;;
24799;SDS011;12897;50.812;4.430;2023-05-16T10:54:04;10.10;;;1.70;;
24799;SDS011;12897;50.812;4.430;2023-05-16T10:56:37;7.33;;;2.25;;
24799;SDS011;12897;50.812;4.430;2023-05-16T10:59:21;9.50;;;1.47;;
24799;SDS011;12897;50.812;4.430;2023-05-16T11:01:52;6.05;;;1.60;;
24799;SDS011;12897;50.812;4.430;2023-05-16T11:04:21;7.03;;;1.98;;
24799;SDS011;12897;50.812;4.430;2023-05-16T11:06:49;5.20;;;1.60;;
24799;SDS011;12897;50.812;4.430;2023-05-16T11:09:22;10.20;;;1.87;;
24799;SDS011;12897;50.812;4.430;2023-05-16T11:11:58;8.70;;;1.57;;
24799;SDS011;12897;50.812;4.430;2023-05-16T11:14:34;14.70;;;1.80;;
24799;SDS011;12897;50.812;4.430;2023-05-16T11:19:48;9.05;;;1.50;;
24799;SDS011;12897;50.812;4.430;2023-05-16T11:22:25;8.73;;;1.45;;
24799;SDS011;12897;50.812;4.430;2023-05-16T11:25:01;8.68;;;1.62;;
24799;SDS011;12897;50.812;4.430;2023-05-16T11:27:32;12.30;;;1.57;;
24799;SDS011;12897;50.812;4.430;2023-05-16T11:32:33;10.75;;;1.67;;
24799;SDS011;12897;50.812;4.430;2023-05-16T11:35:02;7.83;;;1.50;;
24799;SDS011;12897;50.812;4.430;2023-05-16T11:37:30;8.38;;;1.70;;
24799;SDS011;12897;50.812;4.430;2023-05-16T11:39:59;9.40;;;1.75;;
24799;SDS011;12897;50.812;4.430;2023-05-16T11:42:36;8.00;;;1.47;;
24799;SDS011;12897;50.812;4.430;2023-05-16T11:47:47;12.60;;;1.67;;
24799;SDS011;12897;50.812;4.430;2023-05-16T11:50:19;10.00;;;1.90;;
24799;SDS011;12897;50.812;4.430;2023-05-16T11:52:52;9.45;;;1.85;;
24799;SDS011;12897;50.812;4.430;2023-05-16T11:55:23;12.03;;;2.15;;
24799;SDS011;12897;50.812;4.430;2023-05-16T11:57:53;19.60;;;2.45;;
24799;SDS011;12897;50.812;4.430;2023-05-16T12:00:21;5.72;;;1.32;;
24799;SDS011;12897;50.812;4.430;2023-05-16T12:05:20;11.57;;;1.90;;
24799;SDS011;12897;50.812;4.430;2023-05-16T12:10:18;6.08;;;1.50;;
24799;SDS011;12897;50.812;4.430;2023-05-16T12:12:47;6.25;;;1.27;;
24799;SDS011;12897;50.812;4.430;2023-05-16T12:15:17;8.65;;;1.62;;
24799;SDS011;12897;50.812;4.430;2023-05-16T12:17:46;8.93;;;1.55;;
24799;SDS011;12897;50.812;4.430;2023-05-16T12:20:15;10.03;;;1.27;;
24799;SDS011;12897;50.812;4.430;2023-05-16T12:22:44;9.48;;;1.60;;
24799;SDS011;12897;50.812;4.430;2023-05-16T12:25:28;5.47;;;1.40;;
24799;SDS011;12897;50.812;4.430;2023-05-16T12:27:59;7.03;;;1.80;;
24799;SDS011;12897;50.812;4.430;2023-05-16T12:30:29;8.23;;;1.77;;
24799;SDS011;12897;50.812;4.430;2023-05-16T12:32:59;7.78;;;1.75;;
24799;SDS011;12897;50.812;4.430;2023-05-16T12:35:31;5.50;;;1.85;;
24799;SDS011;12897;50.812;4.430;2023-05-16T12:38:08;13.35;;;2.35;;
24799;SDS011;12897;50.812;4.430;2023-05-16T12:40:37;7.83;;;1.45;;
24799;SDS011;12897;50.812;4.430;2023-05-16T12:43:14;4.80;;;1.67;;
24799;SDS011;12897;50.812;4.430;2023-05-16T12:45:52;7.90;;;1.60;;
24799;SDS011;12897;50.812;4.430;2023-05-16T12:48:21;6.92;;;1.70;;
24799;SDS011;12897;50.812;4.430;2023-05-16T12:50:50;8.73;;;2.10;;
24799;SDS011;12897;50.812;4.430;2023-05-16T12:53:18;12.23;;;2.02;;
24799;SDS011;12897;50.812;4.430;2023-05-16T12:55:45;8.15;;;1.75;;
24799;SDS011;12897;50.812;4.430;2023-05-16T12:58:13;7.08;;;1.90;;
24799;SDS011;12897;50.812;4.430;2023-05-16T13:00:42;8.63;;;1.60;;
24799;SDS011;12897;50.812;4.430;2023-05-16T13:03:18;8.10;;;1.60;;
24799;SDS011;12897;50.812;4.430;2023-05-16T13:08:14;5.30;;;1.20;;
24799;SDS011;12897;50.812;4.430;2023-05-16T13:10:41;6.50;;;1.55;;
24799;SDS011;12897;50.812;4.430;2023-05-16T13:13:10;10.15;;;1.92;;
24799;SDS011;12897;50.812;4.430;2023-05-16T13:15:39;11.40;;;1.53;;
24799;SDS011;12897;50.812;4.430;2023-05-16T13:18:07;8.25;;;1.30;;
24799;SDS011;12897;50.812;4.430;2023-05-16T13:20:35;5.28;;;1.47;;
24799;SDS011;12897;50.812;4.430;2023-05-16T13:23:04;4.95;;;1.40;;
24799;SDS011;12897;50.812;4.430;2023-05-16T13:25:34;11.00;;;1.70;;
24799;SDS011;12897;50.812;4.430;2023-05-16T13:28:04;6.53;;;1.55;;
24799;SDS011;12897;50.812;4.430;2023-05-16T13:30:32;7.33;;;1.30;;
24799;SDS011;12897;50.812;4.430;2023-05-16T13:33:00;6.05;;;1.55;;
24799;SDS011;12897;50.812;4.430;2023-05-16T13:35:29;9.60;;;1.77;;
24799;SDS011;12897;50.812;4.430;2023-05-16T13:37:57;10.80;;;1.75;;
24799;SDS011;12897;50.812;4.430;2023-05-16T13:42:56;5.28;;;1.90;;
24799;SDS011;12897;50.812;4.430;2023-05-16T13:45:23;6.80;;;1.72;;
24799;SDS011;12897;50.812;4.430;2023-05-16T13:47:52;9.45;;;1.80;;
24799;SDS011;12897;50.812;4.430;2023-05-16T13:50:19;8.60;;;1.70;;
24799;SDS011;12897;50.812;4.430;2023-05-16T13:52:47;7.53;;;1.80;;
24799;SDS011;12897;50.812;4.430;2023-05-16T13:55:14;7.15;;;1.37;;
24799;SDS011;12897;50.812;4.430;2023-05-16T13:57:43;2.92;;;1.27;;
24799;SDS011;12897;50.812;4.430;2023-05-16T14:00:11;5.00;;;1.37;;
24799;SDS011;12897;50.812;4.430;2023-05-16T14:02:40;10.43;;;1.77;;
24799;SDS011;12897;50.812;4.430;2023-05-16T14:05:08;4.00;;;1.62;;
24799;SDS011;12897;50.812;4.430;2023-05-16T14:07:36;6.55;;;1.42;;
24799;SDS011;12897;50.812;4.430;2023-05-16T14:10:04;7.15;;;1.60;;
24799;SDS011;12897;50.812;4.430;2023-05-16T14:12:32;5.60;;;1.50;;
24799;SDS011;12897;50.812;4.430;2023-05-16T14:15:00;10.63;;;2.00;;
24799;SDS011;12897;50.812;4.430;2023-05-16T14:17:27;7.62;;;1.50;;
24799;SDS011;12897;50.812;4.430;2023-05-16T14:19:56;7.42;;;1.52;;
24799;SDS011;12897;50.812;4.430;2023-05-16T14:22:23;7.50;;;1.85;;
24799;SDS011;12897;50.812;4.430;2023-05-16T14:24:51;11.45;;;1.55;;
24799;SDS011;12897;50.812;4.430;2023-05-16T14:27:19;7.65;;;1.77;;
24799;SDS011;12897;50.812;4.430;2023-05-16T14:29:47;6.87;;;1.82;;
24799;SDS011;12897;50.812;4.430;2023-05-16T14:32:14;3.83;;;1.17;;
24799;SDS011;12897;50.812;4.430;2023-05-16T14:34:42;7.30;;;1.27;;
24799;SDS011;12897;50.812;4.430;2023-05-16T14:37:09;12.95;;;1.92;;
24799;SDS011;12897;50.812;4.430;2023-05-16T14:39:39;6.67;;;1.90;;
24799;SDS011;12897;50.812;4.430;2023-05-16T14:42:07;6.67;;;1.67;;
24799;SDS011;12897;50.812;4.430;2023-05-16T14:44:35;4.25;;;1.45;;
24799;SDS011;12897;50.812;4.430;2023-05-16T14:47:06;7.93;;;1.60;;
24799;SDS011;12897;50.812;4.430;2023-05-16T14:49:33;5.75;;;1.67;;
24799;SDS011;12897;50.812;4.430;2023-05-16T14:52:01;3.37;;;1.32;;
24799;SDS011;12897;50.812;4.430;2023-05-16T14:54:29;5.42;;;1.47;;
24799;SDS011;12897;50.812;4.430;2023-05-16T14:56:56;6.85;;;1.80;;
24799;SDS011;12897;50.812;4.430;2023-05-16T14:59:25;5.12;;;1.55;;
24799;SDS011;12897;50.812;4.430;2023-05-16T15:01:54;3.10;;;1.30;;
24799;SDS011;12897;50.812;4.430;2023-05-16T15:04:24;7.40;;;1.60;;
24799;SDS011;12897;50.812;4.430;2023-05-16T15:06:53;7.33;;;1.80;;
24799;SDS011;12897;50.812;4.430;2023-05-16T15:09:22;4.50;;;1.17;;
24799;SDS011;12897;50.812;4.430;2023-05-16T15:14:19;9.38;;;1.52;;
24799;SDS011;12897;50.812;4.430;2023-05-16T15:16:46;6.67;;;1.33;;
24799;SDS011;12897;50.812;4.430;2023-05-16T15:19:26;7.58;;;1.22;;
24799;SDS011;12897;50.812;4.430;2023-05-16T15:22:01;8.08;;;1.30;;
24799;SDS011;12897;50.812;4.430;2023-05-16T15:24:36;3.90;;;1.15;;
24799;SDS011;12897;50.812;4.430;2023-05-16T15:27:10;5.55;;;1.40;;
24799;SDS011;12897;50.812;4.430;2023-05-16T15:29:38;8.28;;;1.60;;
24799;SDS011;12897;50.812;4.430;2023-05-16T15:32:06;9.18;;;1.25;;
24799;SDS011;12897;50.812;4.430;2023-05-16T15:34:35;12.05;;;1.60;;
24799;SDS011;12897;50.812;4.430;2023-05-16T15:37:03;3.27;;;1.15;;
24799;SDS011;12897;50.812;4.430;2023-05-16T15:39:30;7.75;;;1.52;;
24799;SDS011;12897;50.812;4.430;2023-05-16T15:41:58;5.85;;;1.35;;
24799;SDS011;12897;50.812;4.430;2023-05-16T15:44:26;3.35;;;1.17;;
24799;SDS011;12897;50.812;4.430;2023-05-16T15:46:54;7.35;;;1.47;;
24799;SDS011;12897;50.812;4.430;2023-05-16T15:49:26;6.72;;;1.62;;
24799;SDS011;12897;50.812;4.430;2023-05-16T15:51:54;7.12;;;1.65;;